sensor_id;sensor_type;location;lat;lon;timestamp;temperature;humidity
6824;DHT22;58633;49.470;11.004;2023-02-28T00:00:19;0.50;53.60
6824;DHT22;58633;49.470;11.004;2023-02-28T00:02:45;0.40;53.50
6824;DHT22;58633;49.470;11.004;2023-02-28T00:05:13;0.30;53.40
6824;DHT22;58633;49.470;11.004;2023-02-28T00:07:39;0.80;53.90
6824;DHT22;58633;49.470;11.004;2023-02-28T00:10:07;0.40;53.60
6824;DHT22;58633;49.470;11.004;2023-02-28T00:12:34;0.70;54.00
6824;DHT22;58633;49.470;11.004;2023-02-28T00:14:59;0.40;53.80
6824;DHT22;58633;49.470;11.004;2023-02-28T00:17:25;0.10;53.60
6824;DHT22;58633;49.470;11.004;2023-02-28T00:19:51;0.70;54.30
6824;DHT22;58633;49.470;11.004;2023-02-28T00:22:18;2.20;55.50
6824;DHT22;58633;49.470;11.004;2023-02-28T00:27:10;0.40;54.00
6824;DHT22;58633;49.470;11.004;2023-02-28T00:29:37;0.80;54.40
6824;DHT22;58633;49.470;11.004;2023-02-28T00:34:28;0.40;54.20
6824;DHT22;58633;49.470;11.004;2023-02-28T00:36:54;0.40;54.30
6824;DHT22;58633;49.470;11.004;2023-02-28T00:39:20;0.30;54.30
6824;DHT22;58633;49.470;11.004;2023-02-28T00:44:11;0.80;54.80
6824;DHT22;58633;49.470;11.004;2023-02-28T00:46:37;0.80;54.90
6824;DHT22;58633;49.470;11.004;2023-02-28T00:49:02;0.30;54.40
6824;DHT22;58633;49.470;11.004;2023-02-28T00:51:28;0.20;54.50
6824;DHT22;58633;49.470;11.004;2023-02-28T00:53:54;0.30;54.60
6824;DHT22;58633;49.470;11.004;2023-02-28T00:56:20;0.60;54.90
6824;DHT22;58633;49.470;11.004;2023-02-28T00:58:45;0.60;54.90
6824;DHT22;58633;49.470;11.004;2023-02-28T01:06:04;0.00;54.60
6824;DHT22;58633;49.470;11.004;2023-02-28T01:10:55;0.60;55.10
6824;DHT22;58633;49.470;11.004;2023-02-28T01:13:21;0.30;54.90
6824;DHT22;58633;49.470;11.004;2023-02-28T01:15:54;0.50;55.10
6824;DHT22;58633;49.470;11.004;2023-02-28T01:18:21;0.20;54.90
6824;DHT22;58633;49.470;11.004;2023-02-28T01:20:47;-0.40;54.50
6824;DHT22;58633;49.470;11.004;2023-02-28T01:23:13;-0.30;54.60
6824;DHT22;58633;49.470;11.004;2023-02-28T01:25:38;0.50;55.40
6824;DHT22;58633;49.470;11.004;2023-02-28T01:28:05;0.50;55.30
6824;DHT22;58633;49.470;11.004;2023-02-28T01:30:31;-0.10;54.90
6824;DHT22;58633;49.470;11.004;2023-02-28T01:32:57;0.40;55.40
6824;DHT22;58633;49.470;11.004;2023-02-28T01:35:23;0.00;55.10
6824;DHT22;58633;49.470;11.004;2023-02-28T01:37:48;0.20;55.30
6824;DHT22;58633;49.470;11.004;2023-02-28T01:40:14;0.00;55.20
6824;DHT22;58633;49.470;11.004;2023-02-28T01:42:39;0.10;55.40
6824;DHT22;58633;49.470;11.004;2023-02-28T01:45:25;0.50;55.80
6824;DHT22;58633;49.470;11.004;2023-02-28T01:47:54;0.30;55.50
6824;DHT22;58633;49.470;11.004;2023-02-28T01:50:25;0.20;55.40
6824;DHT22;58633;49.470;11.004;2023-02-28T01:52:52;-0.10;55.30
6824;DHT22;58633;49.470;11.004;2023-02-28T01:55:20;-0.40;55.20
6824;DHT22;58633;49.470;11.004;2023-02-28T01:57:51;0.20;55.70
6824;DHT22;58633;49.470;11.004;2023-02-28T02:00:20;0.10;55.70
6824;DHT22;58633;49.470;11.004;2023-02-28T02:02:51;0.10;55.60
6824;DHT22;58633;49.470;11.004;2023-02-28T02:05:21;0.20;55.70
6824;DHT22;58633;49.470;11.004;2023-02-28T02:07:50;-0.10;55.60
6824;DHT22;58633;49.470;11.004;2023-02-28T02:10:21;0.70;56.20
6824;DHT22;58633;49.470;11.004;2023-02-28T02:13:19;0.20;55.80
6824;DHT22;58633;49.470;11.004;2023-02-28T02:15:55;0.40;56.10
6824;DHT22;58633;49.470;11.004;2023-02-28T02:24:11;0.20;55.90
6824;DHT22;58633;49.470;11.004;2023-02-28T02:29:39;0.00;55.90
6824;DHT22;58633;49.470;11.004;2023-02-28T02:32:36;-0.20;55.80
6824;DHT22;58633;49.470;11.004;2023-02-28T02:38:08;0.10;56.20
6824;DHT22;58633;49.470;11.004;2023-02-28T02:40:43;0.20;56.30
6824;DHT22;58633;49.470;11.004;2023-02-28T02:44:15;0.50;56.50
6824;DHT22;58633;49.470;11.004;2023-02-28T02:46:55;0.00;56.20
6824;DHT22;58633;49.470;11.004;2023-02-28T02:49:30;-0.20;56.00
6824;DHT22;58633;49.470;11.004;2023-02-28T02:54:28;-0.10;56.30
6824;DHT22;58633;49.470;11.004;2023-02-28T02:56:55;0.00;56.40
6824;DHT22;58633;49.470;11.004;2023-02-28T02:59:22;0.50;56.90
6824;DHT22;58633;49.470;11.004;2023-02-28T03:01:55;0.00;56.50
6824;DHT22;58633;49.470;11.004;2023-02-28T03:04:24;-0.20;56.40
6824;DHT22;58633;49.470;11.004;2023-02-28T03:06:51;0.00;56.60
6824;DHT22;58633;49.470;11.004;2023-02-28T03:09:24;0.10;56.70
6824;DHT22;58633;49.470;11.004;2023-02-28T03:11:52;-0.10;56.50
6824;DHT22;58633;49.470;11.004;2023-02-28T03:20:06;-0.20;56.50
6824;DHT22;58633;49.470;11.004;2023-02-28T03:22:45;-0.10;56.70
6824;DHT22;58633;49.470;11.004;2023-02-28T03:28:10;0.00;56.90
6824;DHT22;58633;49.470;11.004;2023-02-28T03:30:51;-0.60;56.50
6824;DHT22;58633;49.470;11.004;2023-02-28T03:33:23;-0.10;56.90
6824;DHT22;58633;49.470;11.004;2023-02-28T03:35:55;-0.20;56.80
6824;DHT22;58633;49.470;11.004;2023-02-28T03:38:29;-0.30;56.80
6824;DHT22;58633;49.470;11.004;2023-02-28T03:41:24;-0.10;57.00
6824;DHT22;58633;49.470;11.004;2023-02-28T03:43:55;-0.20;56.80
6824;DHT22;58633;49.470;11.004;2023-02-28T03:46:25;0.40;57.40
6824;DHT22;58633;49.470;11.004;2023-02-28T03:51:24;-0.20;57.00
6824;DHT22;58633;49.470;11.004;2023-02-28T03:53:53;0.00;57.20
6824;DHT22;58633;49.470;11.004;2023-02-28T03:56:24;-0.20;57.00
6824;DHT22;58633;49.470;11.004;2023-02-28T03:59:00;-0.30;57.00
6824;DHT22;58633;49.470;11.004;2023-02-28T04:01:35;-0.30;57.00
6824;DHT22;58633;49.470;11.004;2023-02-28T04:04:03;-0.20;57.20
6824;DHT22;58633;49.470;11.004;2023-02-28T04:06:31;-0.20;57.20
6824;DHT22;58633;49.470;11.004;2023-02-28T04:08:58;-0.30;57.10
6824;DHT22;58633;49.470;11.004;2023-02-28T04:14:02;-0.20;57.30
6824;DHT22;58633;49.470;11.004;2023-02-28T04:16:29;0.00;57.40
6824;DHT22;58633;49.470;11.004;2023-02-28T04:18:55;-0.10;57.30
6824;DHT22;58633;49.470;11.004;2023-02-28T04:21:29;-0.20;57.20
6824;DHT22;58633;49.470;11.004;2023-02-28T04:23:55;0.20;57.60
6824;DHT22;58633;49.470;11.004;2023-02-28T04:26:32;-0.40;57.20
6824;DHT22;58633;49.470;11.004;2023-02-28T04:28:58;-0.30;57.20
6824;DHT22;58633;49.470;11.004;2023-02-28T04:31:24;-0.40;57.20
6824;DHT22;58633;49.470;11.004;2023-02-28T04:33:49;-0.90;56.80
6824;DHT22;58633;49.470;11.004;2023-02-28T04:36:15;0.00;57.50
6824;DHT22;58633;49.470;11.004;2023-02-28T04:38:43;-0.30;57.30
6824;DHT22;58633;49.470;11.004;2023-02-28T04:41:09;-0.60;57.10
6824;DHT22;58633;49.470;11.004;2023-02-28T04:43:35;-0.30;57.40
6824;DHT22;58633;49.470;11.004;2023-02-28T04:46:03;-0.60;57.20
6824;DHT22;58633;49.470;11.004;2023-02-28T04:48:30;-0.40;57.30
6824;DHT22;58633;49.470;11.004;2023-02-28T04:51:03;-0.20;57.60
6824;DHT22;58633;49.470;11.004;2023-02-28T04:53:29;-0.20;57.50
6824;DHT22;58633;49.470;11.004;2023-02-28T04:55:56;-0.30;57.50
6824;DHT22;58633;49.470;11.004;2023-02-28T05:00:49;-0.20;57.50
6824;DHT22;58633;49.470;11.004;2023-02-28T05:05:41;0.20;57.90
6824;DHT22;58633;49.470;11.004;2023-02-28T05:10:32;0.40;58.00
6824;DHT22;58633;49.470;11.004;2023-02-28T05:12:58;-0.20;57.60
6824;DHT22;58633;49.470;11.004;2023-02-28T05:15:24;0.40;58.30
6824;DHT22;58633;49.470;11.004;2023-02-28T05:17:49;-0.10;58.30
6824;DHT22;58633;49.470;11.004;2023-02-28T05:20:15;0.50;58.30
6824;DHT22;58633;49.470;11.004;2023-02-28T05:22:41;0.20;57.80
6824;DHT22;58633;49.470;11.004;2023-02-28T05:25:17;0.70;58.20
6824;DHT22;58633;49.470;11.004;2023-02-28T05:27:43;-0.10;57.50
6824;DHT22;58633;49.470;11.004;2023-02-28T05:30:10;-0.10;57.60
6824;DHT22;58633;49.470;11.004;2023-02-28T05:32:37;0.10;57.90
6824;DHT22;58633;49.470;11.004;2023-02-28T05:35:03;-0.20;57.60
6824;DHT22;58633;49.470;11.004;2023-02-28T05:39:55;-0.10;57.70
6824;DHT22;58633;49.470;11.004;2023-02-28T05:42:21;-0.30;57.50
6824;DHT22;58633;49.470;11.004;2023-02-28T05:44:47;-0.60;57.40
6824;DHT22;58633;49.470;11.004;2023-02-28T05:49:41;-0.50;57.50
6824;DHT22;58633;49.470;11.004;2023-02-28T05:52:06;-0.30;57.70
6824;DHT22;58633;49.470;11.004;2023-02-28T05:54:32;-0.20;57.90
6824;DHT22;58633;49.470;11.004;2023-02-28T05:56:58;-0.50;57.70
6824;DHT22;58633;49.470;11.004;2023-02-28T05:59:23;-0.10;58.00
6824;DHT22;58633;49.470;11.004;2023-02-28T06:04:17;0.00;58.00
6824;DHT22;58633;49.470;11.004;2023-02-28T06:06:45;0.20;58.10
6824;DHT22;58633;49.470;11.004;2023-02-28T06:09:11;0.10;58.10
6824;DHT22;58633;49.470;11.004;2023-02-28T06:11:37;0.30;58.30
6824;DHT22;58633;49.470;11.004;2023-02-28T06:14:03;-0.10;58.00
6824;DHT22;58633;49.470;11.004;2023-02-28T06:16:31;0.30;58.30
6824;DHT22;58633;49.470;11.004;2023-02-28T06:18:59;0.00;58.10
6824;DHT22;58633;49.470;11.004;2023-02-28T06:21:24;0.10;58.00
6824;DHT22;58633;49.470;11.004;2023-02-28T06:23:50;0.10;58.10
6824;DHT22;58633;49.470;11.004;2023-02-28T06:26:16;-0.10;58.00
6824;DHT22;58633;49.470;11.004;2023-02-28T06:28:42;0.10;58.10
6824;DHT22;58633;49.470;11.004;2023-02-28T06:31:12;0.20;58.10
6824;DHT22;58633;49.470;11.004;2023-02-28T06:33:39;-0.10;57.80
6824;DHT22;58633;49.470;11.004;2023-02-28T06:36:06;0.10;58.00
6824;DHT22;58633;49.470;11.004;2023-02-28T06:38:32;0.20;58.50
6824;DHT22;58633;49.470;11.004;2023-02-28T06:40:59;0.20;58.00
6824;DHT22;58633;49.470;11.004;2023-02-28T06:43:29;0.20;58.00
6824;DHT22;58633;49.470;11.004;2023-02-28T06:45:58;0.00;57.80
6824;DHT22;58633;49.470;11.004;2023-02-28T06:48:23;0.70;58.30
6824;DHT22;58633;49.470;11.004;2023-02-28T06:50:49;-0.20;57.60
6824;DHT22;58633;49.470;11.004;2023-02-28T06:53:15;0.40;58.10
6824;DHT22;58633;49.470;11.004;2023-02-28T06:55:41;0.50;58.10
6824;DHT22;58633;49.470;11.004;2023-02-28T06:58:07;0.30;57.80
6824;DHT22;58633;49.470;11.004;2023-02-28T07:00:45;0.70;58.10
6824;DHT22;58633;49.470;11.004;2023-02-28T07:03:12;0.40;57.90
6824;DHT22;58633;49.470;11.004;2023-02-28T07:05:38;0.40;58.30
6824;DHT22;58633;49.470;11.004;2023-02-28T07:08:05;0.60;58.00
6824;DHT22;58633;49.470;11.004;2023-02-28T07:10:34;0.60;57.80
6824;DHT22;58633;49.470;11.004;2023-02-28T07:13:00;0.80;58.00
6824;DHT22;58633;49.470;11.004;2023-02-28T07:15:26;1.30;58.40
6824;DHT22;58633;49.470;11.004;2023-02-28T07:17:51;0.70;57.80
6824;DHT22;58633;49.470;11.004;2023-02-28T07:20:17;1.00;58.00
6824;DHT22;58633;49.470;11.004;2023-02-28T07:22:42;1.40;58.50
6824;DHT22;58633;49.470;11.004;2023-02-28T07:25:08;1.10;57.90
6824;DHT22;58633;49.470;11.004;2023-02-28T07:27:34;1.30;57.70
6824;DHT22;58633;49.470;11.004;2023-02-28T07:29:59;1.30;57.70
6824;DHT22;58633;49.470;11.004;2023-02-28T07:34:53;0.70;57.10
6824;DHT22;58633;49.470;11.004;2023-02-28T07:37:18;1.90;57.30
6824;DHT22;58633;49.470;11.004;2023-02-28T07:39:44;1.80;57.00
6824;DHT22;58633;49.470;11.004;2023-02-28T07:42:10;2.00;57.20
6824;DHT22;58633;49.470;11.004;2023-02-28T07:44:38;1.80;57.00
6824;DHT22;58633;49.470;11.004;2023-02-28T07:47:09;1.90;56.90
6824;DHT22;58633;49.470;11.004;2023-02-28T07:49:35;2.10;57.00
6824;DHT22;58633;49.470;11.004;2023-02-28T07:52:05;2.00;56.80
6824;DHT22;58633;49.470;11.004;2023-02-28T07:54:31;2.00;57.20
6824;DHT22;58633;49.470;11.004;2023-02-28T07:56:56;2.10;57.20
6824;DHT22;58633;49.470;11.004;2023-02-28T07:59:22;2.10;56.60
6824;DHT22;58633;49.470;11.004;2023-02-28T08:01:47;2.00;56.30
6824;DHT22;58633;49.470;11.004;2023-02-28T08:04:18;2.30;56.40
6824;DHT22;58633;49.470;11.004;2023-02-28T08:06:44;2.40;56.50
6824;DHT22;58633;49.470;11.004;2023-02-28T08:09:09;2.40;56.20
6824;DHT22;58633;49.470;11.004;2023-02-28T08:11:35;2.60;56.30
6824;DHT22;58633;49.470;11.004;2023-02-28T08:14:01;2.40;56.00
6824;DHT22;58633;49.470;11.004;2023-02-28T08:16:27;3.10;56.50
6824;DHT22;58633;49.470;11.004;2023-02-28T08:18:52;2.80;56.10
6824;DHT22;58633;49.470;11.004;2023-02-28T08:21:19;3.10;56.10
6824;DHT22;58633;49.470;11.004;2023-02-28T08:23:49;3.00;55.70
6824;DHT22;58633;49.470;11.004;2023-02-28T08:26:16;3.00;55.50
6824;DHT22;58633;49.470;11.004;2023-02-28T08:31:11;3.30;55.20
6824;DHT22;58633;49.470;11.004;2023-02-28T08:33:37;3.40;55.20
6824;DHT22;58633;49.470;11.004;2023-02-28T08:36:04;3.60;55.20
6824;DHT22;58633;49.470;11.004;2023-02-28T08:38:30;3.50;54.90
6824;DHT22;58633;49.470;11.004;2023-02-28T08:41:01;3.80;54.80
6824;DHT22;58633;49.470;11.004;2023-02-28T08:43:27;3.80;54.60
6824;DHT22;58633;49.470;11.004;2023-02-28T08:45:54;3.80;54.30
6824;DHT22;58633;49.470;11.004;2023-02-28T08:48:22;3.90;54.20
6824;DHT22;58633;49.470;11.004;2023-02-28T08:51:08;4.00;54.00
6824;DHT22;58633;49.470;11.004;2023-02-28T08:53:38;4.30;54.00
6824;DHT22;58633;49.470;11.004;2023-02-28T08:56:05;4.40;53.90
6824;DHT22;58633;49.470;11.004;2023-02-28T08:58:32;4.00;53.10
6824;DHT22;58633;49.470;11.004;2023-02-28T09:00:58;4.40;53.10
6824;DHT22;58633;49.470;11.004;2023-02-28T09:03:24;4.80;53.80
6824;DHT22;58633;49.470;11.004;2023-02-28T09:05:58;5.50;53.80
6824;DHT22;58633;49.470;11.004;2023-02-28T09:08:26;4.60;53.40
6824;DHT22;58633;49.470;11.004;2023-02-28T09:10:52;4.90;52.50
6824;DHT22;58633;49.470;11.004;2023-02-28T09:13:18;4.80;51.90
6824;DHT22;58633;49.470;11.004;2023-02-28T09:18:10;4.80;51.50
6824;DHT22;58633;49.470;11.004;2023-02-28T09:20:40;5.10;51.50
6824;DHT22;58633;49.470;11.004;2023-02-28T09:23:07;4.90;51.10
6824;DHT22;58633;49.470;11.004;2023-02-28T09:25:33;5.30;51.30
6824;DHT22;58633;49.470;11.004;2023-02-28T09:27:59;4.50;50.20
6824;DHT22;58633;49.470;11.004;2023-02-28T09:30:24;5.10;50.80
6824;DHT22;58633;49.470;11.004;2023-02-28T09:32:50;4.90;51.00
6824;DHT22;58633;49.470;11.004;2023-02-28T09:35:19;5.10;51.00
6824;DHT22;58633;49.470;11.004;2023-02-28T09:37:46;4.90;50.40
6824;DHT22;58633;49.470;11.004;2023-02-28T09:40:13;4.90;50.30
6824;DHT22;58633;49.470;11.004;2023-02-28T09:45:31;4.90;50.50
6824;DHT22;58633;49.470;11.004;2023-02-28T09:48:04;5.50;51.00
6824;DHT22;58633;49.470;11.004;2023-02-28T09:50:50;5.00;50.50
6824;DHT22;58633;49.470;11.004;2023-02-28T09:53:27;5.30;50.70
6824;DHT22;58633;49.470;11.004;2023-02-28T09:55:58;5.40;50.30
6824;DHT22;58633;49.470;11.004;2023-02-28T09:58:47;5.30;50.70
6824;DHT22;58633;49.470;11.004;2023-02-28T10:01:24;5.00;49.70
6824;DHT22;58633;49.470;11.004;2023-02-28T10:06:21;5.80;50.00
6824;DHT22;58633;49.470;11.004;2023-02-28T10:09:11;5.80;50.00
6824;DHT22;58633;49.470;11.004;2023-02-28T10:11:39;6.50;50.20
6824;DHT22;58633;49.470;11.004;2023-02-28T10:16:50;6.50;50.40
6824;DHT22;58633;49.470;11.004;2023-02-28T10:19:46;6.50;49.70
6824;DHT22;58633;49.470;11.004;2023-02-28T10:22:36;6.70;49.20
6824;DHT22;58633;49.470;11.004;2023-02-28T10:25:23;6.30;48.60
6824;DHT22;58633;49.470;11.004;2023-02-28T10:27:51;6.90;48.80
6824;DHT22;58633;49.470;11.004;2023-02-28T10:32:52;6.80;47.80
6824;DHT22;58633;49.470;11.004;2023-02-28T10:35:25;6.90;47.60
6824;DHT22;58633;49.470;11.004;2023-02-28T10:37:57;7.10;47.30
6824;DHT22;58633;49.470;11.004;2023-02-28T10:42:59;7.00;46.70
6824;DHT22;58633;49.470;11.004;2023-02-28T10:45:26;7.40;47.20
6824;DHT22;58633;49.470;11.004;2023-02-28T10:47:59;7.30;47.00
6824;DHT22;58633;49.470;11.004;2023-02-28T10:50:37;7.60;47.10
6824;DHT22;58633;49.470;11.004;2023-02-28T10:55:36;7.90;47.30
6824;DHT22;58633;49.470;11.004;2023-02-28T10:58:02;8.00;47.10
6824;DHT22;58633;49.470;11.004;2023-02-28T11:00:33;7.70;46.90
6824;DHT22;58633;49.470;11.004;2023-02-28T11:07:57;8.50;46.40
6824;DHT22;58633;49.470;11.004;2023-02-28T11:10:27;8.70;46.10
6824;DHT22;58633;49.470;11.004;2023-02-28T11:12:55;8.70;45.90
6824;DHT22;58633;49.470;11.004;2023-02-28T11:15:28;8.90;45.70
6824;DHT22;58633;49.470;11.004;2023-02-28T11:17:55;9.10;45.60
6824;DHT22;58633;49.470;11.004;2023-02-28T11:20:23;8.80;44.70
6824;DHT22;58633;49.470;11.004;2023-02-28T11:22:51;9.10;45.00
6824;DHT22;58633;49.470;11.004;2023-02-28T11:25:22;8.10;44.00
6824;DHT22;58633;49.470;11.004;2023-02-28T11:27:54;9.40;44.80
6824;DHT22;58633;49.470;11.004;2023-02-28T11:30:25;9.40;44.90
6824;DHT22;58633;49.470;11.004;2023-02-28T11:35:23;9.80;44.20
6824;DHT22;58633;49.470;11.004;2023-02-28T11:37:49;10.40;43.50
6824;DHT22;58633;49.470;11.004;2023-02-28T11:40:39;9.90;43.60
6824;DHT22;58633;49.470;11.004;2023-02-28T11:43:16;10.00;42.70
6824;DHT22;58633;49.470;11.004;2023-02-28T11:46:02;10.10;42.30
6824;DHT22;58633;49.470;11.004;2023-02-28T11:48:45;10.30;42.70
6824;DHT22;58633;49.470;11.004;2023-02-28T11:51:32;10.70;42.20
6824;DHT22;58633;49.470;11.004;2023-02-28T12:05:48;11.00;40.90
6824;DHT22;58633;49.470;11.004;2023-02-28T12:19:44;11.30;39.40
6824;DHT22;58633;49.470;11.004;2023-02-28T12:27:23;11.50;39.20
6824;DHT22;58633;49.470;11.004;2023-02-28T12:29:54;11.60;39.30
6824;DHT22;58633;49.470;11.004;2023-02-28T12:32:27;11.70;39.40
6824;DHT22;58633;49.470;11.004;2023-02-28T12:35:01;11.70;39.30
6824;DHT22;58633;49.470;11.004;2023-02-28T12:37:32;12.10;39.00
6824;DHT22;58633;49.470;11.004;2023-02-28T12:40:03;11.70;38.60
6824;DHT22;58633;49.470;11.004;2023-02-28T12:42:35;12.00;39.00
6824;DHT22;58633;49.470;11.004;2023-02-28T12:45:10;12.10;38.80
6824;DHT22;58633;49.470;11.004;2023-02-28T12:47:38;11.90;38.50
6824;DHT22;58633;49.470;11.004;2023-02-28T12:50:09;12.20;38.60
6824;DHT22;58633;49.470;11.004;2023-02-28T12:52:56;12.20;38.20
6824;DHT22;58633;49.470;11.004;2023-02-28T12:55:49;12.00;38.10
6824;DHT22;58633;49.470;11.004;2023-02-28T13:01:11;12.60;38.00
6824;DHT22;58633;49.470;11.004;2023-02-28T13:07:06;13.00;37.40
6824;DHT22;58633;49.470;11.004;2023-02-28T13:09:37;13.30;37.40
6824;DHT22;58633;49.470;11.004;2023-02-28T13:12:13;13.10;36.70
6824;DHT22;58633;49.470;11.004;2023-02-28T13:14:39;12.80;36.90
6824;DHT22;58633;49.470;11.004;2023-02-28T13:24:56;13.50;36.30
6824;DHT22;58633;49.470;11.004;2023-02-28T13:27:35;13.50;36.00
6824;DHT22;58633;49.470;11.004;2023-02-28T13:30:02;13.80;35.80
6824;DHT22;58633;49.470;11.004;2023-02-28T13:32:46;14.20;36.00
6824;DHT22;58633;49.470;11.004;2023-02-28T13:35:37;14.70;35.70
6824;DHT22;58633;49.470;11.004;2023-02-28T13:38:15;14.50;35.80
6824;DHT22;58633;49.470;11.004;2023-02-28T13:40:41;14.80;35.10
6824;DHT22;58633;49.470;11.004;2023-02-28T13:43:08;14.70;35.30
6824;DHT22;58633;49.470;11.004;2023-02-28T13:48:16;14.60;35.10
6824;DHT22;58633;49.470;11.004;2023-02-28T13:50:43;14.50;34.50
6824;DHT22;58633;49.470;11.004;2023-02-28T13:55:48;15.20;34.90
6824;DHT22;58633;49.470;11.004;2023-02-28T14:01:26;15.40;34.70
6824;DHT22;58633;49.470;11.004;2023-02-28T14:04:14;15.60;34.30
6824;DHT22;58633;49.470;11.004;2023-02-28T14:06:54;15.70;34.50
6824;DHT22;58633;49.470;11.004;2023-02-28T14:12:08;15.60;33.40
6824;DHT22;58633;49.470;11.004;2023-02-28T14:17:15;15.70;33.20
6824;DHT22;58633;49.470;11.004;2023-02-28T14:19:45;15.80;33.30
6824;DHT22;58633;49.470;11.004;2023-02-28T14:36:35;15.90;33.10
6824;DHT22;58633;49.470;11.004;2023-02-28T14:39:06;15.80;32.90
6824;DHT22;58633;49.470;11.004;2023-02-28T14:41:37;15.90;33.00
6824;DHT22;58633;49.470;11.004;2023-02-28T14:44:30;15.80;33.00
6824;DHT22;58633;49.470;11.004;2023-02-28T14:46:59;15.90;32.80
6824;DHT22;58633;49.470;11.004;2023-02-28T14:49:36;15.90;32.40
6824;DHT22;58633;49.470;11.004;2023-02-28T14:54:35;18.50;34.80
6824;DHT22;58633;49.470;11.004;2023-02-28T14:57:02;15.60;32.40
6824;DHT22;58633;49.470;11.004;2023-02-28T14:59:33;15.70;32.80
6824;DHT22;58633;49.470;11.004;2023-02-28T15:02:20;15.40;32.30
6824;DHT22;58633;49.470;11.004;2023-02-28T15:05:13;15.40;32.60
6824;DHT22;58633;49.470;11.004;2023-02-28T15:07:39;15.40;32.00
6824;DHT22;58633;49.470;11.004;2023-02-28T15:10:08;15.10;32.10
6824;DHT22;58633;49.470;11.004;2023-02-28T15:12:35;15.20;32.20
6824;DHT22;58633;49.470;11.004;2023-02-28T15:15:02;15.20;32.10
6824;DHT22;58633;49.470;11.004;2023-02-28T15:17:27;15.20;31.70
6824;DHT22;58633;49.470;11.004;2023-02-28T15:19:54;15.10;31.90
6824;DHT22;58633;49.470;11.004;2023-02-28T15:22:31;14.90;31.90
6824;DHT22;58633;49.470;11.004;2023-02-28T15:24:58;15.00;32.30
6824;DHT22;58633;49.470;11.004;2023-02-28T15:27:27;15.20;32.10
6824;DHT22;58633;49.470;11.004;2023-02-28T15:29:57;15.10;31.90
6824;DHT22;58633;49.470;11.004;2023-02-28T15:32:28;14.80;31.80
6824;DHT22;58633;49.470;11.004;2023-02-28T15:34:55;14.70;31.90
6824;DHT22;58633;49.470;11.004;2023-02-28T15:39:53;14.60;32.00
6824;DHT22;58633;49.470;11.004;2023-02-28T15:42:22;14.60;31.90
6824;DHT22;58633;49.470;11.004;2023-02-28T15:44:48;14.70;32.10
6824;DHT22;58633;49.470;11.004;2023-02-28T15:47:32;14.50;31.80
6824;DHT22;58633;49.470;11.004;2023-02-28T15:50:00;14.40;32.00
6824;DHT22;58633;49.470;11.004;2023-02-28T15:55:19;14.40;32.40
6824;DHT22;58633;49.470;11.004;2023-02-28T15:57:47;14.10;32.20
6824;DHT22;58633;49.470;11.004;2023-02-28T16:00:16;13.90;32.30
6824;DHT22;58633;49.470;11.004;2023-02-28T16:02:43;13.30;32.40
6824;DHT22;58633;49.470;11.004;2023-02-28T16:07:40;12.70;33.20
6824;DHT22;58633;49.470;11.004;2023-02-28T16:10:09;12.80;33.70
6824;DHT22;58633;49.470;11.004;2023-02-28T16:12:36;12.00;33.40
6824;DHT22;58633;49.470;11.004;2023-02-28T16:15:20;11.70;33.50
6824;DHT22;58633;49.470;11.004;2023-02-28T16:17:47;12.20;34.30
6824;DHT22;58633;49.470;11.004;2023-02-28T16:20:24;11.20;33.80
6824;DHT22;58633;49.470;11.004;2023-02-28T16:22:51;10.90;34.10
6824;DHT22;58633;49.470;11.004;2023-02-28T16:25:20;10.80;34.30
6824;DHT22;58633;49.470;11.004;2023-02-28T16:27:48;10.50;34.40
6824;DHT22;58633;49.470;11.004;2023-02-28T16:30:20;10.10;34.80
6824;DHT22;58633;49.470;11.004;2023-02-28T16:32:46;10.30;35.30
6824;DHT22;58633;49.470;11.004;2023-02-28T16:35:12;9.90;36.30
6824;DHT22;58633;49.470;11.004;2023-02-28T16:37:39;9.60;36.50
6824;DHT22;58633;49.470;11.004;2023-02-28T16:40:05;9.50;36.70
6824;DHT22;58633;49.470;11.004;2023-02-28T16:42:31;9.40;36.70
6824;DHT22;58633;49.470;11.004;2023-02-28T16:44:57;9.30;37.00
6824;DHT22;58633;49.470;11.004;2023-02-28T16:47:23;8.80;37.00
6824;DHT22;58633;49.470;11.004;2023-02-28T16:49:52;8.20;37.00
6824;DHT22;58633;49.470;11.004;2023-02-28T16:52:17;8.80;37.60
6824;DHT22;58633;49.470;11.004;2023-02-28T16:54:43;8.30;37.80
6824;DHT22;58633;49.470;11.004;2023-02-28T16:57:20;8.50;38.00
6824;DHT22;58633;49.470;11.004;2023-02-28T17:02:14;8.10;38.00
6824;DHT22;58633;49.470;11.004;2023-02-28T17:07:15;7.90;38.60
6824;DHT22;58633;49.470;11.004;2023-02-28T17:09:42;7.70;38.60
6824;DHT22;58633;49.470;11.004;2023-02-28T17:12:08;7.70;38.70
6824;DHT22;58633;49.470;11.004;2023-02-28T17:14:34;7.20;38.70
6824;DHT22;58633;49.470;11.004;2023-02-28T17:21:53;7.30;39.40
6824;DHT22;58633;49.470;11.004;2023-02-28T17:24:19;7.90;40.00
6824;DHT22;58633;49.470;11.004;2023-02-28T17:29:19;7.40;40.00
6824;DHT22;58633;49.470;11.004;2023-02-28T17:31:45;7.80;40.00
6824;DHT22;58633;49.470;11.004;2023-02-28T17:34:11;7.70;39.70
6824;DHT22;58633;49.470;11.004;2023-02-28T17:36:38;7.20;39.60
6824;DHT22;58633;49.470;11.004;2023-02-28T17:39:04;7.20;39.80
6824;DHT22;58633;49.470;11.004;2023-02-28T17:41:34;7.30;40.10
6824;DHT22;58633;49.470;11.004;2023-02-28T17:46:25;6.90;40.40
6824;DHT22;58633;49.470;11.004;2023-02-28T17:48:52;6.80;40.50
6824;DHT22;58633;49.470;11.004;2023-02-28T17:51:20;6.90;40.70
6824;DHT22;58633;49.470;11.004;2023-02-28T17:53:46;6.70;40.60
6824;DHT22;58633;49.470;11.004;2023-02-28T17:56:23;6.70;40.90
6824;DHT22;58633;49.470;11.004;2023-02-28T17:58:51;6.80;41.10
6824;DHT22;58633;49.470;11.004;2023-02-28T18:01:16;6.70;41.10
6824;DHT22;58633;49.470;11.004;2023-02-28T18:03:42;6.50;41.10
6824;DHT22;58633;49.470;11.004;2023-02-28T18:06:40;6.40;41.30
6824;DHT22;58633;49.470;11.004;2023-02-28T18:09:20;6.40;41.40
6824;DHT22;58633;49.470;11.004;2023-02-28T18:11:47;6.50;41.60
6824;DHT22;58633;49.470;11.004;2023-02-28T18:14:17;6.30;41.80
6824;DHT22;58633;49.470;11.004;2023-02-28T18:16:43;6.40;42.10
6824;DHT22;58633;49.470;11.004;2023-02-28T18:21:47;6.00;41.90
6824;DHT22;58633;49.470;11.004;2023-02-28T18:24:14;5.90;42.20
6824;DHT22;58633;49.470;11.004;2023-02-28T18:26:41;6.10;42.50
6824;DHT22;58633;49.470;11.004;2023-02-28T18:29:07;5.90;42.40
6824;DHT22;58633;49.470;11.004;2023-02-28T18:31:33;6.00;42.50
6824;DHT22;58633;49.470;11.004;2023-02-28T18:33:59;5.70;42.70
6824;DHT22;58633;49.470;11.004;2023-02-28T18:36:25;5.60;43.20
6824;DHT22;58633;49.470;11.004;2023-02-28T18:38:51;6.00;43.50
6824;DHT22;58633;49.470;11.004;2023-02-28T18:41:19;5.50;43.40
6824;DHT22;58633;49.470;11.004;2023-02-28T18:43:48;5.60;43.80
6824;DHT22;58633;49.470;11.004;2023-02-28T18:46:17;5.50;43.70
6824;DHT22;58633;49.470;11.004;2023-02-28T18:48:43;5.70;43.90
6824;DHT22;58633;49.470;11.004;2023-02-28T18:51:17;5.70;43.80
6824;DHT22;58633;49.470;11.004;2023-02-28T18:53:43;5.90;44.00
6824;DHT22;58633;49.470;11.004;2023-02-28T18:56:11;5.40;43.60
6824;DHT22;58633;49.470;11.004;2023-02-28T19:01:16;5.30;43.80
6824;DHT22;58633;49.470;11.004;2023-02-28T19:03:42;4.90;43.60